Time;durP1;ratioP1;P1;durP2;ratioP2;P2;SDS_P1;SDS_P2;PMS_P1;PMS_P2;Temp;Humidity;BMP_temperature;BMP_pressure;BME280_temperature;BME280_humidity;BME280_pressure;Samples;Min_cycle;Max_cycle;Signal;HPM_P1;HPM_P2
2023/06/08 00:01:39;;;;;;;6.20;4.80;;;19.90;87.00;;;;;;5031533;28;20522;-66
2023/06/08 00:04:05;;;;;;;5.30;3.90;;;19.90;87.40;;;;;;5023727;28;20180;-66
2023/06/08 00:06:33;;;;;;;5.13;4.00;;;19.90;87.70;;;;;;5030867;28;20173;-66
2023/06/08 00:09:02;;;;;;;6.53;4.60;;;19.80;87.90;;;;;;5031007;28;20458;-67
2023/06/08 00:11:28;;;;;;;5.57;3.77;;;19.80;86.90;;;;;;5031212;28;20415;-65
2023/06/08 00:13:54;;;;;;;6.03;4.50;;;19.70;86.70;;;;;;5031159;28;20780;-66
2023/06/08 00:16:20;;;;;;;4.50;4.10;;;19.70;86.80;;;;;;5031071;28;20172;-66
2023/06/08 00:18:46;;;;;;;5.00;4.50;;;19.60;87.10;;;;;;5031031;28;20762;-66
2023/06/08 00:21:15;;;;;;;7.13;4.93;;;19.60;87.50;;;;;;5030925;28;20419;-67
2023/06/08 00:23:41;;;;;;;7.17;5.67;;;19.50;88.00;;;;;;5029893;28;20168;-66
2023/06/08 00:26:07;;;;;;;10.67;8.03;;;19.50;89.00;;;;;;5030865;28;20501;-68
2023/06/08 00:28:32;;;;;;;9.63;5.60;;;19.40;89.70;;;;;;5030185;28;20176;-64
2023/06/08 00:30:58;;;;;;;7.87;5.90;;;19.40;90.20;;;;;;5031012;28;20660;-67
2023/06/08 00:33:23;;;;;;;7.90;5.13;;;19.30;90.50;;;;;;5031214;28;20201;-64
2023/06/08 00:35:49;;;;;;;5.27;4.77;;;19.30;90.80;;;;;;5033630;28;20166;-66
2023/06/08 00:38:15;;;;;;;9.77;6.00;;;19.20;91.00;;;;;;5035228;28;20192;-67
2023/06/08 00:40:42;;;;;;;7.90;5.00;;;19.20;91.30;;;;;;5033769;28;20572;-67
2023/06/08 00:43:08;;;;;;;7.53;4.70;;;19.10;91.40;;;;;;5035010;28;20654;-66
2023/06/08 00:45:34;;;;;;;8.10;5.73;;;19.00;91.80;;;;;;5034511;28;20548;-66
2023/06/08 00:48:02;;;;;;;11.63;5.97;;;19.00;91.70;;;;;;5034983;28;20184;-67
2023/06/08 00:50:31;;;;;;;7.13;5.50;;;18.90;91.80;;;;;;5034435;28;20207;-66
2023/06/08 00:52:56;;;;;;;6.83;5.43;;;18.80;91.80;;;;;;5034700;28;20821;-65
2023/06/08 00:55:24;;;;;;;6.60;5.40;;;18.80;92.00;;;;;;5034631;28;20395;-67
2023/06/08 00:57:51;;;;;;;8.83;5.67;;;18.70;92.00;;;;;;5026633;28;20172;-67
2023/06/08 01:00:17;;;;;;;9.87;5.73;;;18.70;92.20;;;;;;5033538;28;20434;-66
2023/06/08 01:02:43;;;;;;;7.20;4.63;;;18.70;92.40;;;;;;5026775;28;20435;-70
2023/06/08 01:05:09;;;;;;;5.67;4.53;;;18.60;92.60;;;;;;5030274;28;20576;-67
2023/06/08 01:07:48;;;;;;;6.87;4.93;;;18.60;92.70;;;;;;5034369;28;21282;-65
2023/06/08 01:10:25;;;;;;;4.77;4.33;;;18.50;92.60;;;;;;5030715;28;20543;-67
2023/06/08 01:13:06;;;;;;;7.47;5.00;;;18.50;92.70;;;;;;5032424;28;20436;-67
2023/06/08 01:15:37;;;;;;;4.80;4.37;;;18.40;92.70;;;;;;5032885;28;20423;-67
2023/06/08 01:18:08;;;;;;;6.17;4.47;;;18.40;92.70;;;;;;5042118;28;20503;-67
2023/06/08 01:20:42;;;;;;;5.37;4.00;;;18.40;92.70;;;;;;5034003;28;20464;-66
2023/06/08 01:23:11;;;;;;;6.07;5.07;;;18.40;92.90;;;;;;5034005;28;20408;-68
2023/06/08 01:25:38;;;;;;;7.27;4.30;;;18.40;92.80;;;;;;5034113;28;20854;-67
2023/06/08 01:28:12;;;;;;;6.20;5.00;;;18.30;92.60;;;;;;5033929;28;20493;-67
2023/06/08 01:30:45;;;;;;;5.10;3.77;;;18.30;92.70;;;;;;5033859;28;20524;-66
2023/06/08 01:33:14;;;;;;;9.00;4.47;;;18.30;92.70;;;;;;5034396;28;20914;-67
2023/06/08 01:35:40;;;;;;;6.27;4.57;;;18.30;92.60;;;;;;5034048;28;20410;-65
2023/06/08 01:38:17;;;;;;;5.83;4.60;;;18.40;92.50;;;;;;5032018;28;20406;-67
2023/06/08 01:40:46;;;;;;;4.93;4.37;;;18.40;92.20;;;;;;5033928;28;20432;-67
2023/06/08 01:43:13;;;;;;;6.40;5.13;;;18.40;91.90;;;;;;5032766;28;20404;-67
2023/06/08 01:45:43;;;;;;;7.27;4.63;;;18.30;91.80;;;;;;5032654;28;20423;-66
2023/06/08 01:48:09;;;;;;;4.67;4.27;;;18.30;91.40;;;;;;5033445;28;20416;-65
2023/06/08 01:50:37;;;;;;;4.33;4.00;;;18.30;91.30;;;;;;5033407;28;20502;-67
2023/06/08 01:53:02;;;;;;;4.13;3.73;;;18.30;91.00;;;;;;5033699;28;20427;-66
2023/06/08 01:55:28;;;;;;;7.80;3.73;;;18.20;90.90;;;;;;5033503;28;20414;-67
2023/06/08 01:57:54;;;;;;;5.90;5.30;;;18.20;90.90;;;;;;5033261;28;20473;-67
2023/06/08 02:00:20;;;;;;;5.30;3.87;;;18.10;90.90;;;;;;5033402;28;20194;-68
2023/06/08 02:02:46;;;;;;;6.27;4.33;;;18.10;91.00;;;;;;5033256;28;20416;-67
2023/06/08 02:05:13;;;;;;;4.43;4.00;;;18.10;90.80;;;;;;5033368;28;20422;-66
2023/06/08 02:07:39;;;;;;;5.27;4.43;;;18.00;91.00;;;;;;5033163;28;20687;-65
2023/06/08 02:10:06;;;;;;;5.53;5.00;;;18.00;91.10;;;;;;5033197;28;20483;-67
2023/06/08 02:12:32;;;;;;;5.20;4.23;;;17.90;91.00;;;;;;5031629;28;20463;-66
2023/06/08 02:14:58;;;;;;;4.50;3.80;;;17.80;91.00;;;;;;5033403;28;20412;-67
2023/06/08 02:17:27;;;;;;;4.43;4.03;;;17.80;91.30;;;;;;5033063;28;20536;-67
2023/06/08 02:19:53;;;;;;;4.47;4.07;;;17.70;91.40;;;;;;5025781;28;20206;-66
2023/06/08 02:22:20;;;;;;;4.47;4.07;;;17.70;91.60;;;;;;5033138;28;20420;-66
2023/06/08 02:24:46;;;;;;;3.93;3.53;;;17.60;91.80;;;;;;5032868;28;20988;-67
2023/06/08 02:27:13;;;;;;;4.90;4.50;;;17.60;92.00;;;;;;5031568;28;20404;-66
2023/06/08 02:29:40;;;;;;;6.00;4.60;;;17.50;91.80;;;;;;5031247;28;20471;-67
2023/06/08 02:32:06;;;;;;;7.00;5.67;;;17.50;91.80;;;;;;5032984;28;20416;-66
2023/06/08 02:34:32;;;;;;;4.97;4.07;;;17.50;91.90;;;;;;5031891;28;20914;-67
2023/06/08 02:36:58;;;;;;;4.87;4.37;;;17.40;91.90;;;;;;5025841;28;20415;-67
2023/06/08 02:39:23;;;;;;;4.63;4.20;;;17.50;91.60;;;;;;5031015;28;20441;-66
2023/06/08 02:41:49;;;;;;;6.50;3.87;;;17.40;91.50;;;;;;5032519;28;20199;-67
2023/06/08 02:44:15;;;;;;;4.40;3.80;;;17.40;91.90;;;;;;5033081;28;20227;-67
2023/06/08 02:46:41;;;;;;;4.97;4.27;;;17.40;91.50;;;;;;5032715;28;20192;-69
2023/06/08 02:49:06;;;;;;;5.57;4.63;;;17.40;91.60;;;;;;5032444;28;20201;-66
2023/06/08 02:51:32;;;;;;;6.30;4.53;;;17.40;91.70;;;;;;5032430;28;20179;-65
2023/06/08 02:53:57;;;;;;;5.87;4.20;;;17.30;91.70;;;;;;5032375;28;20175;-67
2023/06/08 02:56:25;;;;;;;6.50;4.40;;;17.30;91.90;;;;;;5032397;28;20179;-66
2023/06/08 02:58:51;;;;;;;5.80;4.33;;;17.30;92.00;;;;;;5024132;28;20204;-67
2023/06/08 03:01:18;;;;;;;5.23;4.33;;;17.30;92.00;;;;;;5032541;28;20429;-67
2023/06/08 03:03:45;;;;;;;8.40;6.00;;;17.20;92.00;;;;;;5032001;28;20427;-66
2023/06/08 03:06:17;;;;;;;4.53;4.13;;;17.20;92.00;;;;;;5032358;28;20425;-67
2023/06/08 03:08:44;;;;;;;6.10;4.60;;;17.20;92.00;;;;;;5031759;28;20475;-65
2023/06/08 03:11:10;;;;;;;5.03;4.50;;;17.20;91.90;;;;;;5031207;28;20410;-69
2023/06/08 03:13:35;;;;;;;4.90;4.37;;;17.20;91.80;;;;;;5032210;28;20984;-67
2023/06/08 03:16:01;;;;;;;5.20;4.50;;;17.20;92.00;;;;;;5032080;28;20170;-69
2023/06/08 03:18:27;;;;;;;7.33;4.73;;;17.20;92.10;;;;;;5031839;28;20236;-65
2023/06/08 03:20:52;;;;;;;4.90;4.40;;;17.20;92.10;;;;;;5031886;28;20170;-66
2023/06/08 03:23:20;;;;;;;4.80;4.00;;;17.20;92.10;;;;;;5032106;28;20687;-69
2023/06/08 03:25:48;;;;;;;4.90;4.37;;;17.20;92.10;;;;;;5031762;28;20177;-68
2023/06/08 03:28:15;;;;;;;6.50;4.67;;;17.10;92.10;;;;;;5032019;28;20905;-68
2023/06/08 03:30:41;;;;;;;7.03;4.60;;;17.10;92.20;;;;;;5032192;28;20467;-68
2023/06/08 03:33:06;;;;;;;5.47;4.73;;;17.10;92.30;;;;;;5032068;28;20406;-68
2023/06/08 03:35:32;;;;;;;5.67;4.60;;;17.10;92.60;;;;;;5031746;28;20176;-67
2023/06/08 03:37:57;;;;;;;4.50;4.10;;;17.10;92.10;;;;;;5027343;28;20228;-68
2023/06/08 03:40:23;;;;;;;4.77;4.20;;;17.10;91.80;;;;;;5031149;28;20274;-67
2023/06/08 03:42:50;;;;;;;5.00;4.50;;;17.10;91.90;;;;;;5028497;28;20192;-67
2023/06/08 03:45:17;;;;;;;6.33;4.70;;;17.20;91.70;;;;;;5032167;28;20181;-67
2023/06/08 03:47:42;;;;;;;4.63;4.20;;;17.20;91.70;;;;;;5031815;28;20409;-68
2023/06/08 03:50:08;;;;;;;6.10;4.67;;;17.30;91.40;;;;;;5034290;28;20469;-67
2023/06/08 03:52:34;;;;;;;7.33;5.20;;;17.30;91.40;;;;;;5028335;28;20178;-66
2023/06/08 03:54:59;;;;;;;6.07;4.43;;;17.40;91.40;;;;;;5031504;28;20504;-67
2023/06/08 03:57:25;;;;;;;9.63;4.50;;;17.50;91.10;;;;;;5032057;28;20242;-69
2023/06/08 03:59:51;;;;;;;5.43;4.70;;;17.60;90.80;;;;;;5031919;28;20220;-67
2023/06/08 04:02:16;;;;;;;6.93;5.17;;;17.60;90.70;;;;;;5031862;28;20241;-66
2023/06/08 04:04:44;;;;;;;6.10;4.37;;;17.80;90.70;;;;;;5029349;28;20638;-68
2023/06/08 04:07:11;;;;;;;5.13;4.13;;;17.80;90.40;;;;;;5031387;28;20563;-67
2023/06/08 04:09:37;;;;;;;5.50;4.10;;;17.90;90.20;;;;;;5031882;28;20463;-69
2023/06/08 04:12:02;;;;;;;5.20;4.50;;;18.00;89.70;;;;;;5032580;28;20428;-67
2023/06/08 04:14:28;;;;;;;6.10;4.17;;;18.20;89.20;;;;;;5032656;28;20659;-66
2023/06/08 04:16:54;;;;;;;6.30;4.70;;;18.60;87.30;;;;;;5033219;28;20648;-68
2023/06/08 04:19:20;;;;;;;6.53;4.00;;;19.30;84.70;;;;;;5032935;28;20221;-68
2023/06/08 04:21:45;;;;;;;5.03;4.20;;;19.90;81.80;;;;;;5032502;28;20622;-68
2023/06/08 04:24:11;;;;;;;4.03;3.63;;;20.40;78.90;;;;;;5032467;28;20220;-66
2023/06/08 04:26:36;;;;;;;7.20;3.40;;;21.00;76.50;;;;;;5033156;28;20189;-67
2023/06/08 04:29:03;;;;;;;6.07;4.23;;;21.50;74.50;;;;;;5032765;28;20281;-70
2023/06/08 04:31:30;;;;;;;7.53;5.27;;;21.60;72.60;;;;;;5033408;28;20192;-67
2023/06/08 04:33:56;;;;;;;4.70;4.27;;;21.60;70.60;;;;;;5028950;28;20405;-68
2023/06/08 04:36:22;;;;;;;4.33;3.83;;;21.50;69.30;;;;;;5030921;28;20490;-68
2023/06/08 04:38:47;;;;;;;6.23;4.30;;;21.50;68.60;;;;;;5031081;28;20209;-68
2023/06/08 04:41:14;;;;;;;4.40;4.00;;;21.70;69.90;;;;;;5033629;28;20192;-66
2023/06/08 04:43:40;;;;;;;6.40;3.80;;;21.80;69.10;;;;;;5031436;28;20245;-69
2023/06/08 04:46:07;;;;;;;5.53;4.50;;;21.50;70.50;;;;;;5031008;28;20470;-68
2023/06/08 04:48:33;;;;;;;5.33;4.40;;;21.10;71.70;;;;;;5031010;28;20660;-68
2023/06/08 04:51:09;;;;;;;4.90;4.50;;;20.70;71.70;;;;;;5029577;28;20431;-66
2023/06/08 04:53:35;;;;;;;4.37;3.67;;;20.40;72.70;;;;;;5031160;28;20806;-68
2023/06/08 04:56:02;;;;;;;5.00;4.23;;;20.20;74.50;;;;;;5031034;28;20770;-68
2023/06/08 04:58:29;;;;;;;6.80;4.93;;;20.20;73.20;;;;;;5030686;28;20425;-68
2023/06/08 05:00:55;;;;;;;7.90;4.20;;;20.30;73.30;;;;;;5029692;28;20404;-67
2023/06/08 05:03:22;;;;;;;7.00;4.33;;;20.20;73.10;;;;;;5029671;28;20492;-68
2023/06/08 05:05:48;;;;;;;5.80;4.30;;;19.90;73.70;;;;;;5030806;28;20409;-67
2023/06/08 05:08:14;;;;;;;4.87;4.07;;;20.00;74.30;;;;;;5030827;28;20398;-67
2023/06/08 05:10:40;;;;;;;5.70;4.53;;;19.90;74.70;;;;;;5030525;28;20257;-66
2023/06/08 05:13:05;;;;;;;5.23;4.73;;;19.90;74.80;;;;;;5030914;28;20413;-70
2023/06/08 05:15:31;;;;;;;5.50;5.00;;;20.00;75.30;;;;;;5030759;28;20204;-67
2023/06/08 05:17:57;;;;;;;6.20;4.47;;;20.00;74.40;;;;;;5030251;28;20181;-67
2023/06/08 05:20:25;;;;;;;5.20;4.70;;;20.00;74.20;;;;;;5030995;28;20595;-67
2023/06/08 05:22:51;;;;;;;7.20;4.70;;;20.00;74.80;;;;;;5026167;28;20443;-66
2023/06/08 05:25:17;;;;;;;4.43;4.03;;;20.00;74.20;;;;;;5034394;28;20420;-66
2023/06/08 05:27:43;;;;;;;5.77;4.40;;;20.00;75.60;;;;;;5033954;28;20433;-67
2023/06/08 05:30:09;;;;;;;5.67;4.10;;;20.20;76.50;;;;;;5033915;28;20587;-66
2023/06/08 05:32:36;;;;;;;5.27;4.77;;;20.20;77.00;;;;;;5033618;28;20410;-67
2023/06/08 05:35:02;;;;;;;6.03;4.80;;;20.50;75.70;;;;;;5028595;28;20403;-67
2023/06/08 05:37:28;;;;;;;5.63;5.10;;;20.60;74.40;;;;;;5033912;28;20417;-67
2023/06/08 05:39:54;;;;;;;4.50;4.10;;;20.60;75.20;;;;;;5034068;28;20435;-67
2023/06/08 05:42:20;;;;;;;6.40;4.47;;;20.80;75.70;;;;;;5033746;28;20170;-68
2023/06/08 05:44:46;;;;;;;5.83;4.83;;;20.80;75.50;;;;;;5033884;28;20266;-68
2023/06/08 05:47:12;;;;;;;9.20;4.17;;;20.80;76.00;;;;;;5033783;28;20497;-66
2023/06/08 05:49:37;;;;;;;7.63;4.40;;;21.20;76.00;;;;;;5033435;28;20969;-67
2023/06/08 05:52:03;;;;;;;5.70;4.60;;;21.70;75.00;;;;;;5032366;28;20175;-68
2023/06/08 05:54:29;;;;;;;8.53;4.43;;;22.40;73.40;;;;;;5033728;28;20247;-67
2023/06/08 05:56:55;;;;;;;5.37;4.23;;;22.30;72.80;;;;;;5033904;28;20582;-67
2023/06/08 05:59:20;;;;;;;4.60;4.20;;;22.90;71.90;;;;;;5033679;28;20735;-68
2023/06/08 06:01:47;;;;;;;4.50;4.10;;;24.20;70.70;;;;;;5045725;22;20322;-68
2023/06/08 06:04:13;;;;;;;8.97;4.07;;;24.60;68.30;;;;;;5032316;28;20175;-69
2023/06/08 06:06:38;;;;;;;6.23;4.00;;;25.00;65.20;;;;;;5032428;28;20701;-69
2023/06/08 06:09:04;;;;;;;4.27;3.87;;;25.70;62.70;;;;;;5032287;28;20207;-70
2023/06/08 06:11:30;;;;;;;7.07;3.87;;;25.30;62.80;;;;;;5032446;28;20631;-71
2023/06/08 06:13:57;;;;;;;5.93;3.33;;;25.40;62.60;;;;;;5031966;28;20175;-72
2023/06/08 06:16:23;;;;;;;5.97;4.63;;;25.50;61.80;;;;;;5032812;28;20406;-68
2023/06/08 06:18:49;;;;;;;8.10;4.50;;;25.20;61.50;;;;;;5029914;28;20433;-70
2023/06/08 06:21:14;;;;;;;7.93;4.90;;;25.50;61.80;;;;;;5032796;28;20183;-71
2023/06/08 06:23:40;;;;;;;4.10;3.70;;;25.20;62.60;;;;;;5031938;28;20171;-72
2023/06/08 06:26:06;;;;;;;8.67;4.70;;;25.50;62.10;;;;;;5032046;28;20176;-69
2023/06/08 06:28:31;;;;;;;4.57;4.10;;;25.80;60.90;;;;;;5032143;28;20638;-69
2023/06/08 06:30:57;;;;;;;5.60;4.10;;;25.80;61.20;;;;;;5031289;28;20167;-70
2023/06/08 06:33:23;;;;;;;5.13;4.33;;;25.70;61.90;;;;;;5031578;28;20183;-72
2023/06/08 06:35:50;;;;;;;4.40;4.00;;;25.50;62.80;;;;;;5029371;28;20828;-71
2023/06/08 06:38:16;;;;;;;5.07;3.30;;;26.00;62.30;;;;;;5031727;28;20168;-70
2023/06/08 06:40:42;;;;;;;7.73;3.80;;;26.00;60.70;;;;;;5031785;28;20460;-71
2023/06/08 06:43:08;;;;;;;4.93;4.30;;;26.00;61.30;;;;;;5031681;28;20195;-70
2023/06/08 06:45:34;;;;;;;5.77;3.80;;;26.50;60.40;;;;;;5031504;28;20576;-70
2023/06/08 06:48:00;;;;;;;4.00;3.70;;;26.20;59.70;;;;;;5031451;28;20416;-71
2023/06/08 06:50:26;;;;;;;4.37;3.60;;;25.80;60.90;;;;;;5030974;28;20261;-70
2023/06/08 06:52:51;;;;;;;4.50;3.63;;;25.80;61.20;;;;;;5031364;28;20892;-71
2023/06/08 06:55:17;;;;;;;6.43;4.40;;;25.90;60.60;;;;;;5031216;28;20593;-72
2023/06/08 06:57:42;;;;;;;4.97;3.80;;;26.40;60.90;;;;;;5031207;28;20314;-71
2023/06/08 07:00:10;;;;;;;9.73;4.33;;;25.90;60.60;;;;;;5031991;28;20262;-72
2023/06/08 07:02:37;;;;;;;5.70;3.90;;;25.40;62.10;;;;;;5029691;28;20211;-72
2023/06/08 07:05:07;;;;;;;5.40;3.73;;;25.40;63.30;;;;;;5029376;28;20433;-75
2023/06/08 07:07:34;;;;;;;5.40;4.53;;;25.40;62.90;;;;;;5030763;28;20406;-71
2023/06/08 07:09:59;;;;;;;4.70;4.00;;;25.90;61.80;;;;;;5030524;28;20493;-73
2023/06/08 07:12:25;;;;;;;4.90;3.77;;;25.80;62.00;;;;;;5030460;28;20458;-71
2023/06/08 07:14:51;;;;;;;5.50;3.87;;;26.20;60.80;;;;;;5025696;28;20171;-70
2023/06/08 07:17:16;;;;;;;4.10;3.70;;;26.50;59.60;;;;;;5030903;28;20167;-71
2023/06/08 07:19:45;;;;;;;4.90;3.47;;;26.40;59.90;;;;;;5031403;28;20206;-71
2023/06/08 07:22:11;;;;;;;4.00;3.67;;;25.70;61.80;;;;;;5029440;28;20187;-71
2023/06/08 07:24:37;;;;;;;5.73;3.50;;;26.60;59.50;;;;;;5030550;28;20464;-72
2023/06/08 07:27:03;;;;;;;6.50;3.67;;;27.70;59.00;;;;;;5030362;28;20479;-70
2023/06/08 07:29:28;;;;;;;5.60;3.90;;;26.90;58.70;;;;;;5042234;28;20191;-71
2023/06/08 07:31:54;;;;;;;5.03;4.50;;;26.50;59.60;;;;;;5030376;28;20199;-72
2023/06/08 07:34:20;;;;;;;5.87;3.90;;;26.40;61.30;;;;;;5029949;28;20172;-71
2023/06/08 07:36:46;;;;;;;5.83;4.10;;;27.10;59.60;;;;;;5029971;28;20567;-73
2023/06/08 07:39:11;;;;;;;5.07;4.57;;;27.40;59.40;;;;;;5027595;28;20419;-70
2023/06/08 07:41:37;;;;;;;6.50;3.27;;;27.90;59.20;;;;;;5029904;28;20534;-71
2023/06/08 07:44:03;;;;;;;4.20;3.80;;;28.10;59.80;;;;;;5029361;28;20306;-71
2023/06/08 07:46:28;;;;;;;7.10;4.13;;;29.50;57.60;;;;;;5030133;28;20180;-73
2023/06/08 07:48:54;;;;;;;4.17;3.40;;;29.90;56.50;;;;;;5029839;28;20198;-70
2023/06/08 07:51:20;;;;;;;5.73;3.70;;;29.10;56.50;;;;;;5030046;28;20191;-70
2023/06/08 07:53:45;;;;;;;5.40;4.20;;;29.70;56.40;;;;;;5030237;28;20663;-71
2023/06/08 07:56:11;;;;;;;5.00;4.50;;;30.80;55.30;;;;;;5029773;28;20175;-69
2023/06/08 07:58:37;;;;;;;8.30;4.40;;;31.30;54.00;;;;;;5029995;28;20176;-72
2023/06/08 08:01:03;;;;;;;4.63;4.23;;;30.50;54.70;;;;;;5029618;28;20170;-70
2023/06/08 08:03:28;;;;;;;4.47;4.07;;;30.10;55.60;;;;;;5029787;28;20546;-70
2023/06/08 08:05:56;;;;;;;4.73;4.23;;;30.00;56.00;;;;;;5029549;28;20409;-70
2023/06/08 08:08:21;;;;;;;5.13;3.77;;;30.00;56.30;;;;;;5029891;28;20172;-70
2023/06/08 08:10:47;;;;;;;4.83;3.57;;;30.10;56.30;;;;;;5029637;28;20507;-73
2023/06/08 08:13:13;;;;;;;4.40;4.00;;;30.10;56.60;;;;;;5029591;28;20191;-72
2023/06/08 08:15:42;;;;;;;5.53;4.43;;;30.50;56.00;;;;;;5029885;28;20414;-71
2023/06/08 08:18:08;;;;;;;4.10;3.80;;;31.70;54.80;;;;;;5029711;28;20186;-71
2023/06/08 08:20:34;;;;;;;5.33;3.70;;;31.00;55.40;;;;;;5030067;28;20418;-72
2023/06/08 08:22:59;;;;;;;8.93;4.27;;;30.90;54.80;;;;;;5029722;28;20638;-72
2023/06/08 08:25:25;;;;;;;5.17;3.87;;;31.40;53.40;;;;;;5029352;28;20191;-72
2023/06/08 08:27:51;;;;;;;4.00;3.67;;;31.50;53.00;;;;;;5029510;28;20237;-70
2023/06/08 08:30:16;;;;;;;5.20;3.73;;;31.10;52.80;;;;;;5029644;28;20286;-69
2023/06/08 08:32:42;;;;;;;5.70;3.80;;;31.30;51.90;;;;;;5029552;28;20191;-70
2023/06/08 08:35:10;;;;;;;4.60;3.40;;;30.70;53.60;;;;;;5029472;28;20229;-72
2023/06/08 08:37:35;;;;;;;8.63;4.20;;;30.80;53.90;;;;;;5029503;28;20178;-71
2023/06/08 08:40:01;;;;;;;4.07;3.60;;;31.10;53.60;;;;;;5029743;28;20429;-69
2023/06/08 08:42:30;;;;;;;4.00;3.43;;;31.10;53.10;;;;;;5029575;28;20206;-70
2023/06/08 08:44:57;;;;;;;4.40;3.50;;;31.30;52.70;;;;;;5029681;28;20944;-70
2023/06/08 08:47:24;;;;;;;4.90;4.27;;;31.30;52.40;;;;;;5029396;28;20922;-70
2023/06/08 08:50:04;;;;;;;4.73;3.10;;;31.00;52.60;;;;;;5021749;28;20446;-69
2023/06/08 08:52:33;;;;;;;4.40;3.50;;;31.60;51.30;;;;;;5027709;28;20456;-70
2023/06/08 08:55:00;;;;;;;3.90;3.60;;;30.90;51.30;;;;;;5030762;28;20424;-71
2023/06/08 08:57:30;;;;;;;6.13;4.03;;;30.50;51.70;;;;;;5032969;28;20436;-70
2023/06/08 08:59:56;;;;;;;4.80;4.27;;;30.10;51.80;;;;;;5033379;28;20468;-70
2023/06/08 09:02:22;;;;;;;3.37;3.07;;;30.60;50.50;;;;;;5033163;28;20461;-70
2023/06/08 09:04:49;;;;;;;3.20;2.90;;;31.20;49.80;;;;;;5033318;28;20875;-70
2023/06/08 09:07:21;;;;;;;6.50;3.50;;;31.00;49.10;;;;;;5033048;28;20782;-71
2023/06/08 09:10:13;;;;;;;8.40;4.07;;;30.80;49.80;;;;;;5032742;28;20453;-71
2023/06/08 09:12:43;;;;;;;4.10;3.80;;;31.00;51.00;;;;;;5032977;28;20477;-70
2023/06/08 09:15:11;;;;;;;4.17;3.87;;;31.20;50.80;;;;;;5032820;28;20884;-72
2023/06/08 09:17:38;;;;;;;4.37;3.97;;;31.10;51.40;;;;;;5033091;28;20500;-71
2023/06/08 09:20:08;;;;;;;4.43;3.97;;;31.40;51.40;;;;;;5032942;28;20417;-69
2023/06/08 09:26:02;;;;;;;7.30;4.57;;;32.10;49.90;;;;;;5025428;28;20437;-69
2023/06/08 09:28:31;;;;;;;4.93;3.47;;;31.70;50.90;;;;;;5030841;28;20547;-70
2023/06/08 09:31:00;;;;;;;4.73;3.90;;;31.30;51.50;;;;;;5031774;28;20450;-70
2023/06/08 09:33:32;;;;;;;6.83;3.70;;;31.30;52.00;;;;;;5032632;28;20414;-70
2023/06/08 09:35:58;;;;;;;7.53;4.53;;;31.50;51.90;;;;;;5033063;28;20788;-70
2023/06/08 09:38:28;;;;;;;4.37;3.97;;;31.20;51.80;;;;;;5032312;28;20413;-72
2023/06/08 09:41:19;;;;;;;4.10;3.70;;;30.90;51.20;;;;;;5032405;28;20171;-72
2023/06/08 09:43:46;;;;;;;5.60;3.37;;;30.80;51.20;;;;;;5032186;28;20406;-72
2023/06/08 09:46:16;;;;;;;4.23;3.70;;;31.20;51.20;;;;;;5032274;28;20410;-71
2023/06/08 09:48:52;;;;;;;8.23;3.90;;;30.90;51.70;;;;;;5031788;28;20432;-73
2023/06/08 09:51:21;;;;;;;3.53;3.23;;;30.10;52.70;;;;;;5032398;28;20430;-74
2023/06/08 09:53:51;;;;;;;8.77;4.43;;;29.90;52.20;;;;;;5032153;28;20488;-71
2023/06/08 09:56:17;;;;;;;7.00;4.30;;;29.80;53.00;;;;;;5031929;28;20422;-72
2023/06/08 09:58:45;;;;;;;5.13;4.00;;;30.30;52.80;;;;;;5031723;28;20440;-72
2023/06/08 10:01:12;;;;;;;3.50;3.30;;;31.00;52.00;;;;;;5031693;28;20764;-71
2023/06/08 10:03:40;;;;;;;4.60;3.90;;;30.90;51.30;;;;;;5031775;28;20418;-71
2023/06/08 10:06:07;;;;;;;4.33;4.00;;;30.60;51.80;;;;;;5031089;28;20407;-70
2023/06/08 10:08:34;;;;;;;4.53;3.80;;;30.10;51.90;;;;;;5032017;28;20406;-71
2023/06/08 10:11:00;;;;;;;3.83;3.50;;;29.70;52.80;;;;;;5028526;28;20919;-70
2023/06/08 10:13:27;;;;;;;6.20;3.50;;;29.40;53.50;;;;;;5030879;28;20410;-71
2023/06/08 10:15:54;;;;;;;3.93;3.63;;;29.10;53.90;;;;;;5030988;28;20410;-71
2023/06/08 10:18:21;;;;;;;4.57;4.17;;;29.10;54.00;;;;;;5029871;28;20476;-72
2023/06/08 10:20:47;;;;;;;7.03;5.87;;;29.20;54.00;;;;;;5031069;28;20414;-70
2023/06/08 10:23:13;;;;;;;4.63;4.03;;;29.20;53.90;;;;;;5031221;28;20425;-72
2023/06/08 10:25:41;;;;;;;4.00;3.70;;;29.00;54.40;;;;;;5029944;28;20425;-72
2023/06/08 10:28:08;;;;;;;4.87;3.53;;;29.00;53.80;;;;;;5031165;28;20176;-73
2023/06/08 10:30:41;;;;;;;5.80;3.83;;;28.90;53.90;;;;;;5023517;28;20833;-70
2023/06/08 10:33:15;;;;;;;4.47;4.07;;;28.80;54.80;;;;;;5031062;28;20939;-72
2023/06/08 10:35:43;;;;;;;5.60;3.77;;;29.00;54.30;;;;;;5031184;28;20421;-70
2023/06/08 10:38:15;;;;;;;4.50;4.07;;;28.90;54.30;;;;;;5030857;28;20909;-70
2023/06/08 10:40:50;;;;;;;5.10;3.63;;;29.00;54.90;;;;;;5031013;28;20414;-70
2023/06/08 10:43:16;;;;;;;4.87;3.93;;;29.10;54.50;;;;;;5030686;28;20437;-70
2023/06/08 10:45:45;;;;;;;5.80;3.53;;;28.80;54.90;;;;;;5030680;28;20493;-71
2023/06/08 10:48:19;;;;;;;4.57;4.07;;;28.30;56.00;;;;;;5030794;28;20780;-71
2023/06/08 10:50:48;;;;;;;4.00;3.60;;;28.40;55.80;;;;;;5030700;28;20472;-71
2023/06/08 10:53:17;;;;;;;5.87;5.27;;;28.20;55.80;;;;;;5030703;28;20434;-71
2023/06/08 10:55:46;;;;;;;4.57;4.17;;;28.60;55.70;;;;;;5030502;28;20918;-70
2023/06/08 10:58:18;;;;;;;4.40;3.90;;;29.00;55.40;;;;;;5030575;28;20506;-71
2023/06/08 11:00:45;;;;;;;5.33;3.77;;;29.20;55.30;;;;;;5029663;28;20445;-72
2023/06/08 11:03:13;;;;;;;6.00;4.40;;;29.00;55.20;;;;;;5028850;28;20825;-70
2023/06/08 11:05:44;;;;;;;7.17;5.20;;;29.20;55.60;;;;;;5029750;28;20414;-70
2023/06/08 11:08:11;;;;;;;4.40;4.00;;;29.20;55.10;;;;;;5030056;28;20409;-71
2023/06/08 11:10:39;;;;;;;4.00;3.70;;;29.30;55.30;;;;;;5030093;28;20600;-71
2023/06/08 11:13:10;;;;;;;4.60;4.20;;;29.30;55.40;;;;;;5030378;28;20426;-70
2023/06/08 11:15:38;;;;;;;3.73;3.43;;;29.10;55.20;;;;;;5029985;28;20454;-70
2023/06/08 11:18:04;;;;;;;5.40;3.77;;;28.90;55.00;;;;;;5029088;28;20415;-71
2023/06/08 11:20:30;;;;;;;7.27;4.17;;;28.90;55.20;;;;;;5030172;28;20414;-72
2023/06/08 11:22:56;;;;;;;4.27;3.97;;;29.10;54.50;;;;;;5028551;28;20434;-70
2023/06/08 11:25:23;;;;;;;4.23;3.57;;;28.90;53.90;;;;;;5029921;28;20422;-69
2023/06/08 11:27:57;;;;;;;5.47;3.77;;;29.10;52.50;;;;;;5029357;28;20238;-70
2023/06/08 11:30:31;;;;;;;4.77;3.90;;;29.10;54.00;;;;;;5028568;28;20465;-77
2023/06/08 11:32:57;;;;;;;5.30;3.77;;;28.80;53.70;;;;;;5029185;28;20527;-71
2023/06/08 11:35:24;;;;;;;4.03;3.63;;;28.70;54.80;;;;;;5029963;28;20418;-71
2023/06/08 11:37:51;;;;;;;3.57;3.27;;;28.80;54.30;;;;;;5023149;28;20914;-69
2023/06/08 11:40:17;;;;;;;3.77;3.47;;;29.10;54.20;;;;;;5026186;28;20829;-70
2023/06/08 11:42:44;;;;;;;4.93;4.53;;;29.20;54.50;;;;;;5025958;28;20517;-73
2023/06/08 11:45:12;;;;;;;3.80;3.50;;;29.20;54.40;;;;;;5028510;28;20426;-71
2023/06/08 11:47:41;;;;;;;4.80;4.40;;;29.30;54.30;;;;;;5026034;28;20414;-71
2023/06/08 11:50:07;;;;;;;5.23;3.60;;;29.60;53.90;;;;;;5029828;28;20474;-70
2023/06/08 11:52:34;;;;;;;3.73;3.40;;;29.50;54.00;;;;;;5029660;28;20450;-71
2023/06/08 11:55:16;;;;;;;5.20;4.70;;;29.00;53.50;;;;;;5026903;28;20418;-70
2023/06/08 11:57:49;;;;;;;3.70;3.30;;;29.00;52.80;;;;;;5029515;28;20497;-72
2023/06/08 12:00:19;;;;;;;5.20;3.87;;;29.20;52.50;;;;;;5029977;28;20565;-72
2023/06/08 12:02:49;;;;;;;6.80;3.80;;;28.80;54.40;;;;;;5030116;28;20796;-72
2023/06/08 12:05:21;;;;;;;4.17;3.77;;;28.70;54.90;;;;;;5027991;28;20441;-70
2023/06/08 12:07:56;;;;;;;4.00;3.70;;;28.80;55.40;;;;;;5029737;28;20726;-72
2023/06/08 12:10:24;;;;;;;3.93;3.53;;;29.10;54.80;;;;;;5023669;28;21013;-71
2023/06/08 12:12:50;;;;;;;5.10;4.03;;;29.20;51.50;;;;;;5021379;28;20453;-72
2023/06/08 12:15:17;;;;;;;4.50;4.00;;;29.30;51.40;;;;;;5029336;28;20417;-71
2023/06/08 12:17:43;;;;;;;4.53;3.87;;;29.30;51.50;;;;;;5028705;28;20917;-72
2023/06/08 12:20:09;;;;;;;4.73;4.33;;;29.50;53.00;;;;;;5024227;28;20426;-71
2023/06/08 12:22:35;;;;;;;6.03;4.87;;;29.10;53.10;;;;;;5029267;28;20449;-73
2023/06/08 12:25:00;;;;;;;4.93;3.80;;;29.00;53.40;;;;;;5027981;28;20406;-72
2023/06/08 12:27:29;;;;;;;3.57;3.23;;;29.30;53.10;;;;;;5025272;28;20258;-72
2023/06/08 12:29:56;;;;;;;4.63;3.57;;;29.30;53.00;;;;;;5031176;28;20207;-71
2023/06/08 12:32:23;;;;;;;5.10;3.60;;;29.40;52.40;;;;;;5033650;28;20422;-70
2023/06/08 12:34:48;;;;;;;7.60;4.60;;;29.30;51.80;;;;;;5032057;28;20776;-70
2023/06/08 12:37:14;;;;;;;5.20;3.83;;;29.40;51.30;;;;;;5034119;28;20505;-70
2023/06/08 12:39:40;;;;;;;4.43;4.03;;;29.20;52.10;;;;;;5033028;28;20183;-70
2023/06/08 12:42:06;;;;;;;4.07;3.70;;;29.00;51.60;;;;;;5033661;28;20199;-69
2023/06/08 12:44:32;;;;;;;5.77;3.70;;;28.80;52.00;;;;;;5033325;28;20507;-70
2023/06/08 12:46:59;;;;;;;6.77;3.73;;;29.10;52.00;;;;;;5033522;28;20418;-70
2023/06/08 12:49:25;;;;;;;8.03;4.40;;;29.50;52.10;;;;;;5027684;28;20460;-71
2023/06/08 12:51:51;;;;;;;5.10;3.60;;;29.60;51.90;;;;;;5033691;28;20433;-70